sensor_id;sensor_type;location;lat;lon;timestamp;P1;durP1;ratioP1;P2;durP2;ratioP2
18296;SDS011;18066;52.106;5.534;2023-08-31T00:01:53;3.90;;;1.67;;
18296;SDS011;18066;52.106;5.534;2023-08-31T00:04:21;4.67;;;1.53;;
18296;SDS011;18066;52.106;5.534;2023-08-31T00:06:48;2.87;;;1.90;;
18296;SDS011;18066;52.106;5.534;2023-08-31T00:09:15;8.70;;;2.57;;
18296;SDS011;18066;52.106;5.534;2023-08-31T00:11:41;2.57;;;1.67;;
18296;SDS011;18066;52.106;5.534;2023-08-31T00:14:08;4.43;;;2.10;;
18296;SDS011;18066;52.106;5.534;2023-08-31T00:16:35;2.50;;;1.87;;
18296;SDS011;18066;52.106;5.534;2023-08-31T00:19:03;3.07;;;2.17;;
18296;SDS011;18066;52.106;5.534;2023-08-31T00:21:31;2.27;;;1.77;;
18296;SDS011;18066;52.106;5.534;2023-08-31T00:23:58;2.60;;;2.00;;
18296;SDS011;18066;52.106;5.534;2023-08-31T00:26:25;4.83;;;2.40;;
18296;SDS011;18066;52.106;5.534;2023-08-31T00:28:52;4.73;;;2.00;;
18296;SDS011;18066;52.106;5.534;2023-08-31T00:31:18;2.87;;;2.23;;
18296;SDS011;18066;52.106;5.534;2023-08-31T00:33:46;2.37;;;2.03;;
18296;SDS011;18066;52.106;5.534;2023-08-31T00:36:13;4.33;;;2.27;;
18296;SDS011;18066;52.106;5.534;2023-08-31T00:38:42;4.50;;;2.33;;
18296;SDS011;18066;52.106;5.534;2023-08-31T00:41:09;3.23;;;2.33;;
18296;SDS011;18066;52.106;5.534;2023-08-31T00:43:36;5.87;;;2.77;;
18296;SDS011;18066;52.106;5.534;2023-08-31T00:46:03;5.22;;;2.97;;
18296;SDS011;18066;52.106;5.534;2023-08-31T00:48:30;7.27;;;2.50;;
18296;SDS011;18066;52.106;5.534;2023-08-31T00:50:56;4.17;;;2.70;;
18296;SDS011;18066;52.106;5.534;2023-08-31T00:53:23;6.30;;;2.50;;
18296;SDS011;18066;52.106;5.534;2023-08-31T00:55:51;4.23;;;2.30;;
18296;SDS011;18066;52.106;5.534;2023-08-31T00:58:18;6.40;;;3.00;;
18296;SDS011;18066;52.106;5.534;2023-08-31T01:00:47;13.17;;;3.40;;
18296;SDS011;18066;52.106;5.534;2023-08-31T01:03:22;4.00;;;2.93;;
18296;SDS011;18066;52.106;5.534;2023-08-31T01:05:59;6.07;;;2.90;;
18296;SDS011;18066;52.106;5.534;2023-08-31T01:08:37;4.03;;;3.03;;
18296;SDS011;18066;52.106;5.534;2023-08-31T01:11:12;6.13;;;3.63;;
18296;SDS011;18066;52.106;5.534;2023-08-31T01:13:48;4.67;;;3.00;;
18296;SDS011;18066;52.106;5.534;2023-08-31T01:16:19;5.67;;;3.13;;
18296;SDS011;18066;52.106;5.534;2023-08-31T01:18:50;5.67;;;3.00;;
18296;SDS011;18066;52.106;5.534;2023-08-31T01:21:20;4.97;;;3.83;;
18296;SDS011;18066;52.106;5.534;2023-08-31T01:23:53;8.07;;;3.83;;
18296;SDS011;18066;52.106;5.534;2023-08-31T01:26:21;4.90;;;3.27;;
18296;SDS011;18066;52.106;5.534;2023-08-31T01:28:48;6.20;;;4.27;;
18296;SDS011;18066;52.106;5.534;2023-08-31T01:31:16;9.80;;;4.20;;
18296;SDS011;18066;52.106;5.534;2023-08-31T01:33:43;5.37;;;3.97;;
18296;SDS011;18066;52.106;5.534;2023-08-31T01:36:12;7.57;;;4.33;;
18296;SDS011;18066;52.106;5.534;2023-08-31T01:38:45;9.27;;;4.03;;
18296;SDS011;18066;52.106;5.534;2023-08-31T01:41:19;7.67;;;4.97;;
18296;SDS011;18066;52.106;5.534;2023-08-31T01:43:47;7.20;;;5.07;;
18296;SDS011;18066;52.106;5.534;2023-08-31T01:46:16;7.43;;;4.50;;
18296;SDS011;18066;52.106;5.534;2023-08-31T01:48:43;8.83;;;4.93;;
18296;SDS011;18066;52.106;5.534;2023-08-31T01:51:10;6.77;;;5.43;;
18296;SDS011;18066;52.106;5.534;2023-08-31T01:53:37;7.13;;;5.17;;
18296;SDS011;18066;52.106;5.534;2023-08-31T01:56:04;7.70;;;5.60;;
18296;SDS011;18066;52.106;5.534;2023-08-31T01:58:33;14.53;;;5.60;;
18296;SDS011;18066;52.106;5.534;2023-08-31T02:00:59;9.60;;;5.53;;
18296;SDS011;18066;52.106;5.534;2023-08-31T02:03:26;19.97;;;6.83;;
18296;SDS011;18066;52.106;5.534;2023-08-31T02:05:53;8.57;;;6.43;;
18296;SDS011;18066;52.106;5.534;2023-08-31T02:08:20;10.33;;;6.77;;
18296;SDS011;18066;52.106;5.534;2023-08-31T02:10:47;10.83;;;5.77;;
18296;SDS011;18066;52.106;5.534;2023-08-31T02:13:14;12.13;;;6.43;;
18296;SDS011;18066;52.106;5.534;2023-08-31T02:15:42;8.03;;;6.33;;
18296;SDS011;18066;52.106;5.534;2023-08-31T02:18:08;8.30;;;5.40;;
18296;SDS011;18066;52.106;5.534;2023-08-31T02:20:35;8.37;;;6.20;;
18296;SDS011;18066;52.106;5.534;2023-08-31T02:23:02;10.63;;;6.37;;
18296;SDS011;18066;52.106;5.534;2023-08-31T02:25:29;12.47;;;7.27;;
18296;SDS011;18066;52.106;5.534;2023-08-31T02:27:56;8.80;;;6.70;;
18296;SDS011;18066;52.106;5.534;2023-08-31T02:30:23;11.47;;;7.73;;
18296;SDS011;18066;52.106;5.534;2023-08-31T02:32:51;12.17;;;7.57;;
18296;SDS011;18066;52.106;5.534;2023-08-31T02:35:18;7.53;;;5.97;;
18296;SDS011;18066;52.106;5.534;2023-08-31T02:37:45;9.90;;;5.67;;
18296;SDS011;18066;52.106;5.534;2023-08-31T02:40:11;9.27;;;6.30;;
18296;SDS011;18066;52.106;5.534;2023-08-31T02:42:39;12.23;;;7.00;;
18296;SDS011;18066;52.106;5.534;2023-08-31T02:45:06;9.27;;;6.13;;
18296;SDS011;18066;52.106;5.534;2023-08-31T02:47:33;6.03;;;4.83;;
18296;SDS011;18066;52.106;5.534;2023-08-31T02:50:02;10.17;;;5.63;;
18296;SDS011;18066;52.106;5.534;2023-08-31T02:52:29;8.13;;;6.47;;
18296;SDS011;18066;52.106;5.534;2023-08-31T02:54:56;7.82;;;5.55;;
18296;SDS011;18066;52.106;5.534;2023-08-31T02:57:22;7.80;;;5.82;;
18296;SDS011;18066;52.106;5.534;2023-08-31T02:59:49;10.17;;;5.47;;
18296;SDS011;18066;52.106;5.534;2023-08-31T03:02:16;9.63;;;6.57;;
18296;SDS011;18066;52.106;5.534;2023-08-31T03:04:43;8.67;;;5.13;;
18296;SDS011;18066;52.106;5.534;2023-08-31T03:07:11;10.10;;;5.37;;
18296;SDS011;18066;52.106;5.534;2023-08-31T03:09:40;7.60;;;5.77;;
18296;SDS011;18066;52.106;5.534;2023-08-31T03:12:07;11.40;;;6.23;;
18296;SDS011;18066;52.106;5.534;2023-08-31T03:14:34;8.43;;;5.73;;
18296;SDS011;18066;52.106;5.534;2023-08-31T03:17:00;8.83;;;6.27;;
18296;SDS011;18066;52.106;5.534;2023-08-31T03:19:28;10.77;;;6.20;;
18296;SDS011;18066;52.106;5.534;2023-08-31T03:21:55;8.70;;;5.43;;
18296;SDS011;18066;52.106;5.534;2023-08-31T03:24:23;11.30;;;5.47;;
18296;SDS011;18066;52.106;5.534;2023-08-31T03:26:49;10.60;;;5.23;;
18296;SDS011;18066;52.106;5.534;2023-08-31T03:29:16;7.53;;;5.27;;
18296;SDS011;18066;52.106;5.534;2023-08-31T03:31:43;9.43;;;5.90;;
18296;SDS011;18066;52.106;5.534;2023-08-31T03:34:10;8.97;;;5.87;;
18296;SDS011;18066;52.106;5.534;2023-08-31T03:36:37;14.37;;;5.73;;
18296;SDS011;18066;52.106;5.534;2023-08-31T03:39:03;6.10;;;4.60;;
18296;SDS011;18066;52.106;5.534;2023-08-31T03:41:32;10.10;;;6.37;;
18296;SDS011;18066;52.106;5.534;2023-08-31T03:44:00;7.93;;;5.10;;
18296;SDS011;18066;52.106;5.534;2023-08-31T03:46:27;7.90;;;5.30;;
18296;SDS011;18066;52.106;5.534;2023-08-31T03:48:54;8.03;;;4.60;;
18296;SDS011;18066;52.106;5.534;2023-08-31T03:51:21;7.83;;;4.43;;
18296;SDS011;18066;52.106;5.534;2023-08-31T03:53:48;7.07;;;4.27;;
18296;SDS011;18066;52.106;5.534;2023-08-31T03:56:15;9.20;;;4.77;;
18296;SDS011;18066;52.106;5.534;2023-08-31T03:58:43;6.13;;;4.40;;
18296;SDS011;18066;52.106;5.534;2023-08-31T04:01:10;9.47;;;4.47;;
18296;SDS011;18066;52.106;5.534;2023-08-31T04:03:37;6.27;;;3.93;;
18296;SDS011;18066;52.106;5.534;2023-08-31T04:06:04;6.17;;;4.13;;
18296;SDS011;18066;52.106;5.534;2023-08-31T04:08:31;6.63;;;4.23;;
18296;SDS011;18066;52.106;5.534;2023-08-31T04:10:58;10.73;;;4.07;;
18296;SDS011;18066;52.106;5.534;2023-08-31T04:13:25;5.93;;;4.10;;
18296;SDS011;18066;52.106;5.534;2023-08-31T04:15:53;9.37;;;4.20;;
18296;SDS011;18066;52.106;5.534;2023-08-31T04:18:20;4.37;;;3.30;;
18296;SDS011;18066;52.106;5.534;2023-08-31T04:20:48;6.83;;;3.87;;
18296;SDS011;18066;52.106;5.534;2023-08-31T04:23:16;6.60;;;3.57;;
18296;SDS011;18066;52.106;5.534;2023-08-31T04:25:43;6.37;;;3.87;;
18296;SDS011;18066;52.106;5.534;2023-08-31T04:28:10;7.83;;;3.80;;
18296;SDS011;18066;52.106;5.534;2023-08-31T04:30:38;7.17;;;4.23;;
18296;SDS011;18066;52.106;5.534;2023-08-31T04:33:07;5.67;;;3.33;;
18296;SDS011;18066;52.106;5.534;2023-08-31T04:35:34;10.83;;;3.90;;
18296;SDS011;18066;52.106;5.534;2023-08-31T04:38:00;4.77;;;3.67;;
18296;SDS011;18066;52.106;5.534;2023-08-31T04:40:27;5.47;;;3.80;;
18296;SDS011;18066;52.106;5.534;2023-08-31T04:42:54;6.53;;;4.40;;
18296;SDS011;18066;52.106;5.534;2023-08-31T04:45:21;7.47;;;4.53;;
18296;SDS011;18066;52.106;5.534;2023-08-31T04:47:48;14.20;;;4.37;;
18296;SDS011;18066;52.106;5.534;2023-08-31T04:50:17;8.47;;;4.33;;
18296;SDS011;18066;52.106;5.534;2023-08-31T04:52:44;8.50;;;4.27;;
18296;SDS011;18066;52.106;5.534;2023-08-31T04:55:12;8.50;;;5.50;;
18296;SDS011;18066;52.106;5.534;2023-08-31T04:57:39;13.93;;;5.90;;
18296;SDS011;18066;52.106;5.534;2023-08-31T05:00:06;9.37;;;6.30;;
18296;SDS011;18066;52.106;5.534;2023-08-31T05:02:35;9.03;;;6.00;;
18296;SDS011;18066;52.106;5.534;2023-08-31T05:05:02;10.80;;;6.60;;
18296;SDS011;18066;52.106;5.534;2023-08-31T05:07:31;9.40;;;6.00;;
18296;SDS011;18066;52.106;5.534;2023-08-31T05:09:58;9.83;;;7.27;;
18296;SDS011;18066;52.106;5.534;2023-08-31T05:12:25;11.87;;;7.30;;
18296;SDS011;18066;52.106;5.534;2023-08-31T05:14:51;12.37;;;6.40;;
18296;SDS011;18066;52.106;5.534;2023-08-31T05:17:18;10.63;;;5.77;;
18296;SDS011;18066;52.106;5.534;2023-08-31T05:19:45;9.17;;;5.53;;
18296;SDS011;18066;52.106;5.534;2023-08-31T05:22:13;14.50;;;4.20;;
18296;SDS011;18066;52.106;5.534;2023-08-31T05:24:41;10.53;;;4.97;;
18296;SDS011;18066;52.106;5.534;2023-08-31T05:27:08;8.47;;;4.40;;
18296;SDS011;18066;52.106;5.534;2023-08-31T05:29:35;8.37;;;4.67;;
18296;SDS011;18066;52.106;5.534;2023-08-31T05:32:02;8.93;;;4.93;;
18296;SDS011;18066;52.106;5.534;2023-08-31T05:34:29;14.67;;;8.40;;
18296;SDS011;18066;52.106;5.534;2023-08-31T05:37:02;17.57;;;8.77;;
18296;SDS011;18066;52.106;5.534;2023-08-31T05:39:29;11.63;;;8.07;;
18296;SDS011;18066;52.106;5.534;2023-08-31T05:41:58;14.23;;;8.47;;
18296;SDS011;18066;52.106;5.534;2023-08-31T05:44:24;14.27;;;10.00;;
18296;SDS011;18066;52.106;5.534;2023-08-31T05:46:52;13.48;;;9.07;;
18296;SDS011;18066;52.106;5.534;2023-08-31T05:49:18;19.55;;;9.65;;
18296;SDS011;18066;52.106;5.534;2023-08-31T05:51:45;16.58;;;10.25;;
18296;SDS011;18066;52.106;5.534;2023-08-31T05:54:12;17.90;;;10.13;;
18296;SDS011;18066;52.106;5.534;2023-08-31T05:56:39;17.95;;;10.40;;
18296;SDS011;18066;52.106;5.534;2023-08-31T05:59:07;16.63;;;10.63;;
18296;SDS011;18066;52.106;5.534;2023-08-31T06:01:34;14.27;;;9.73;;
18296;SDS011;18066;52.106;5.534;2023-08-31T06:04:02;17.10;;;9.80;;
18296;SDS011;18066;52.106;5.534;2023-08-31T06:06:30;22.13;;;9.43;;
18296;SDS011;18066;52.106;5.534;2023-08-31T06:08:58;13.00;;;9.65;;
18296;SDS011;18066;52.106;5.534;2023-08-31T06:11:25;16.73;;;10.70;;
18296;SDS011;18066;52.106;5.534;2023-08-31T06:13:52;18.65;;;11.57;;
18296;SDS011;18066;52.106;5.534;2023-08-31T06:16:20;15.80;;;10.13;;
18296;SDS011;18066;52.106;5.534;2023-08-31T06:18:47;11.52;;;8.95;;
18296;SDS011;18066;52.106;5.534;2023-08-31T06:21:14;13.30;;;7.80;;
18296;SDS011;18066;52.106;5.534;2023-08-31T06:23:41;13.63;;;9.27;;
18296;SDS011;18066;52.106;5.534;2023-08-31T06:26:08;13.77;;;8.52;;
18296;SDS011;18066;52.106;5.534;2023-08-31T06:28:35;15.83;;;9.03;;
18296;SDS011;18066;52.106;5.534;2023-08-31T06:31:02;13.37;;;8.87;;
18296;SDS011;18066;52.106;5.534;2023-08-31T06:33:30;13.00;;;8.73;;
18296;SDS011;18066;52.106;5.534;2023-08-31T06:35:57;14.60;;;8.90;;
18296;SDS011;18066;52.106;5.534;2023-08-31T06:38:24;16.37;;;9.53;;
18296;SDS011;18066;52.106;5.534;2023-08-31T06:40:51;12.02;;;8.68;;
18296;SDS011;18066;52.106;5.534;2023-08-31T06:43:19;14.15;;;9.43;;
18296;SDS011;18066;52.106;5.534;2023-08-31T06:45:46;19.00;;;10.00;;
18296;SDS011;18066;52.106;5.534;2023-08-31T06:48:13;15.70;;;9.48;;
18296;SDS011;18066;52.106;5.534;2023-08-31T06:50:41;10.80;;;8.37;;
18296;SDS011;18066;52.106;5.534;2023-08-31T06:53:08;11.45;;;9.02;;
18296;SDS011;18066;52.106;5.534;2023-08-31T06:55:35;12.18;;;8.02;;
18296;SDS011;18066;52.106;5.534;2023-08-31T06:58:03;11.52;;;7.45;;
18296;SDS011;18066;52.106;5.534;2023-08-31T07:00:31;11.15;;;7.30;;
18296;SDS011;18066;52.106;5.534;2023-08-31T07:02:58;14.02;;;7.90;;
18296;SDS011;18066;52.106;5.534;2023-08-31T07:05:25;10.60;;;7.88;;
18296;SDS011;18066;52.106;5.534;2023-08-31T07:07:56;10.93;;;6.80;;
18296;SDS011;18066;52.106;5.534;2023-08-31T07:10:23;11.57;;;6.43;;
18296;SDS011;18066;52.106;5.534;2023-08-31T07:12:50;8.52;;;6.18;;
18296;SDS011;18066;52.106;5.534;2023-08-31T07:15:17;11.20;;;6.95;;
18296;SDS011;18066;52.106;5.534;2023-08-31T07:17:44;8.77;;;6.38;;
18296;SDS011;18066;52.106;5.534;2023-08-31T07:20:11;12.63;;;7.55;;
18296;SDS011;18066;52.106;5.534;2023-08-31T07:22:38;9.07;;;6.47;;
18296;SDS011;18066;52.106;5.534;2023-08-31T07:25:08;12.55;;;7.72;;
18296;SDS011;18066;52.106;5.534;2023-08-31T07:27:35;10.10;;;6.55;;
18296;SDS011;18066;52.106;5.534;2023-08-31T07:30:02;9.88;;;6.30;;
18296;SDS011;18066;52.106;5.534;2023-08-31T07:32:29;8.38;;;5.65;;
18296;SDS011;18066;52.106;5.534;2023-08-31T07:34:56;8.45;;;5.60;;
18296;SDS011;18066;52.106;5.534;2023-08-31T07:37:23;11.82;;;6.97;;
18296;SDS011;18066;52.106;5.534;2023-08-31T07:39:50;8.43;;;6.18;;
18296;SDS011;18066;52.106;5.534;2023-08-31T07:42:18;8.13;;;6.95;;
18296;SDS011;18066;52.106;5.534;2023-08-31T07:44:45;12.13;;;7.80;;
18296;SDS011;18066;52.106;5.534;2023-08-31T07:47:11;8.15;;;6.65;;
18296;SDS011;18066;52.106;5.534;2023-08-31T07:49:38;14.00;;;6.97;;
18296;SDS011;18066;52.106;5.534;2023-08-31T07:52:05;12.82;;;6.35;;
18296;SDS011;18066;52.106;5.534;2023-08-31T07:54:32;8.80;;;6.47;;
18296;SDS011;18066;52.106;5.534;2023-08-31T07:56:59;11.10;;;6.07;;
18296;SDS011;18066;52.106;5.534;2023-08-31T07:59:27;10.63;;;6.43;;
18296;SDS011;18066;52.106;5.534;2023-08-31T08:01:54;7.35;;;5.65;;
18296;SDS011;18066;52.106;5.534;2023-08-31T08:04:21;9.30;;;5.95;;
18296;SDS011;18066;52.106;5.534;2023-08-31T08:06:49;10.32;;;6.00;;
18296;SDS011;18066;52.106;5.534;2023-08-31T08:09:16;9.15;;;5.18;;
18296;SDS011;18066;52.106;5.534;2023-08-31T08:11:44;7.63;;;5.18;;
18296;SDS011;18066;52.106;5.534;2023-08-31T08:14:11;7.90;;;4.35;;
18296;SDS011;18066;52.106;5.534;2023-08-31T08:16:39;10.60;;;4.60;;
18296;SDS011;18066;52.106;5.534;2023-08-31T08:19:06;7.47;;;4.60;;
18296;SDS011;18066;52.106;5.534;2023-08-31T08:21:33;6.20;;;4.68;;
18296;SDS011;18066;52.106;5.534;2023-08-31T08:24:00;13.82;;;5.05;;
18296;SDS011;18066;52.106;5.534;2023-08-31T08:26:28;9.20;;;5.32;;
18296;SDS011;18066;52.106;5.534;2023-08-31T08:28:54;7.75;;;5.47;;
18296;SDS011;18066;52.106;5.534;2023-08-31T08:31:21;7.90;;;5.85;;
18296;SDS011;18066;52.106;5.534;2023-08-31T08:33:49;8.15;;;5.90;;
18296;SDS011;18066;52.106;5.534;2023-08-31T08:36:16;9.77;;;6.78;;
18296;SDS011;18066;52.106;5.534;2023-08-31T08:38:43;12.88;;;7.25;;
18296;SDS011;18066;52.106;5.534;2023-08-31T08:41:10;8.65;;;6.05;;
18296;SDS011;18066;52.106;5.534;2023-08-31T08:43:37;11.18;;;7.25;;
18296;SDS011;18066;52.106;5.534;2023-08-31T08:46:05;11.55;;;7.20;;
18296;SDS011;18066;52.106;5.534;2023-08-31T08:48:33;10.95;;;6.68;;
18296;SDS011;18066;52.106;5.534;2023-08-31T08:51:01;12.52;;;8.18;;
18296;SDS011;18066;52.106;5.534;2023-08-31T08:53:30;22.98;;;7.78;;
18296;SDS011;18066;52.106;5.534;2023-08-31T08:55:56;11.73;;;6.53;;
18296;SDS011;18066;52.106;5.534;2023-08-31T08:58:24;11.02;;;6.72;;
18296;SDS011;18066;52.106;5.534;2023-08-31T09:00:51;9.85;;;6.63;;
18296;SDS011;18066;52.106;5.534;2023-08-31T09:03:20;10.43;;;7.13;;
18296;SDS011;18066;52.106;5.534;2023-08-31T09:05:47;11.93;;;7.85;;
18296;SDS011;18066;52.106;5.534;2023-08-31T09:08:15;11.43;;;6.38;;
18296;SDS011;18066;52.106;5.534;2023-08-31T09:10:42;6.72;;;5.97;;
18296;SDS011;18066;52.106;5.534;2023-08-31T09:13:11;9.57;;;5.72;;
18296;SDS011;18066;52.106;5.534;2023-08-31T09:15:39;9.05;;;5.00;;
18296;SDS011;18066;52.106;5.534;2023-08-31T09:18:07;10.55;;;4.20;;
18296;SDS011;18066;52.106;5.534;2023-08-31T09:20:44;8.15;;;3.88;;
18296;SDS011;18066;52.106;5.534;2023-08-31T09:23:11;12.88;;;5.32;;
18296;SDS011;18066;52.106;5.534;2023-08-31T09:25:43;10.35;;;4.38;;
18296;SDS011;18066;52.106;5.534;2023-08-31T09:28:11;9.82;;;3.38;;
18296;SDS011;18066;52.106;5.534;2023-08-31T09:30:39;7.07;;;3.95;;
18296;SDS011;18066;52.106;5.534;2023-08-31T09:33:07;9.35;;;4.00;;
18296;SDS011;18066;52.106;5.534;2023-08-31T09:35:38;6.13;;;2.80;;
18296;SDS011;18066;52.106;5.534;2023-08-31T09:38:07;5.38;;;2.58;;
18296;SDS011;18066;52.106;5.534;2023-08-31T09:40:34;5.07;;;2.67;;
18296;SDS011;18066;52.106;5.534;2023-08-31T09:43:03;5.65;;;2.72;;
18296;SDS011;18066;52.106;5.534;2023-08-31T09:45:30;3.60;;;2.70;;
18296;SDS011;18066;52.106;5.534;2023-08-31T09:47:59;3.30;;;2.60;;
18296;SDS011;18066;52.106;5.534;2023-08-31T09:50:26;6.50;;;2.55;;
18296;SDS011;18066;52.106;5.534;2023-08-31T09:52:55;7.05;;;2.70;;
18296;SDS011;18066;52.106;5.534;2023-08-31T09:55:27;7.63;;;2.38;;
18296;SDS011;18066;52.106;5.534;2023-08-31T09:57:55;8.38;;;1.70;;
18296;SDS011;18066;52.106;5.534;2023-08-31T10:00:25;6.72;;;2.10;;
18296;SDS011;18066;52.106;5.534;2023-08-31T10:02:53;3.10;;;1.63;;
18296;SDS011;18066;52.106;5.534;2023-08-31T10:05:22;3.00;;;0.95;;
18296;SDS011;18066;52.106;5.534;2023-08-31T10:07:50;3.13;;;1.17;;
18296;SDS011;18066;52.106;5.534;2023-08-31T10:10:17;2.70;;;1.00;;
18296;SDS011;18066;52.106;5.534;2023-08-31T10:12:45;3.53;;;0.90;;
18296;SDS011;18066;52.106;5.534;2023-08-31T10:15:15;7.18;;;1.48;;
18296;SDS011;18066;52.106;5.534;2023-08-31T10:17:43;7.05;;;1.00;;
18296;SDS011;18066;52.106;5.534;2023-08-31T10:20:10;2.40;;;1.08;;
18296;SDS011;18066;52.106;5.534;2023-08-31T10:22:39;3.55;;;1.10;;
18296;SDS011;18066;52.106;5.534;2023-08-31T10:25:06;2.63;;;0.68;;
18296;SDS011;18066;52.106;5.534;2023-08-31T10:27:37;2.13;;;1.10;;
18296;SDS011;18066;52.106;5.534;2023-08-31T10:35:49;1.70;;;0.85;;
18296;SDS011;18066;52.106;5.534;2023-08-31T10:38:17;1.23;;;0.65;;
18296;SDS011;18066;52.106;5.534;2023-08-31T10:41:00;1.90;;;0.60;;
18296;SDS011;18066;52.106;5.534;2023-08-31T10:43:43;2.10;;;0.43;;
18296;SDS011;18066;52.106;5.534;2023-08-31T10:46:24;2.20;;;0.50;;
18296;SDS011;18066;52.106;5.534;2023-08-31T10:48:55;3.97;;;0.60;;
18296;SDS011;18066;52.106;5.534;2023-08-31T10:51:23;0.77;;;0.40;;
18296;SDS011;18066;52.106;5.534;2023-08-31T10:53:50;2.25;;;0.40;;
18296;SDS011;18066;52.106;5.534;2023-08-31T10:56:18;1.02;;;0.60;;
18296;SDS011;18066;52.106;5.534;2023-08-31T11:04:29;0.40;;;0.40;;
18296;SDS011;18066;52.106;5.534;2023-08-31T11:07:15;0.77;;;0.52;;
18296;SDS011;18066;52.106;5.534;2023-08-31T11:09:44;0.70;;;0.50;;
18296;SDS011;18066;52.106;5.534;2023-08-31T11:12:12;1.90;;;0.90;;
18296;SDS011;18066;52.106;5.534;2023-08-31T11:14:39;2.50;;;0.40;;
18296;SDS011;18066;52.106;5.534;2023-08-31T11:17:07;1.58;;;0.50;;
18296;SDS011;18066;52.106;5.534;2023-08-31T11:19:36;1.88;;;0.60;;
18296;SDS011;18066;52.106;5.534;2023-08-31T11:22:03;8.48;;;0.77;;
18296;SDS011;18066;52.106;5.534;2023-08-31T11:24:32;4.25;;;1.08;;
18296;SDS011;18066;52.106;5.534;2023-08-31T11:26:59;1.90;;;0.77;;
18296;SDS011;18066;52.106;5.534;2023-08-31T11:29:28;1.02;;;0.50;;
18296;SDS011;18066;52.106;5.534;2023-08-31T11:31:55;0.57;;;0.40;;
18296;SDS011;18066;52.106;5.534;2023-08-31T11:34:23;10.95;;;0.80;;
18296;SDS011;18066;52.106;5.534;2023-08-31T11:36:51;1.52;;;0.45;;
18296;SDS011;18066;52.106;5.534;2023-08-31T11:39:18;2.80;;;0.52;;
18296;SDS011;18066;52.106;5.534;2023-08-31T11:41:45;1.95;;;0.55;;
18296;SDS011;18066;52.106;5.534;2023-08-31T11:44:14;0.73;;;0.43;;
18296;SDS011;18066;52.106;5.534;2023-08-31T11:46:43;1.63;;;0.52;;
18296;SDS011;18066;52.106;5.534;2023-08-31T11:49:13;1.52;;;0.60;;
18296;SDS011;18066;52.106;5.534;2023-08-31T11:51:40;1.42;;;0.50;;
18296;SDS011;18066;52.106;5.534;2023-08-31T11:54:09;0.40;;;0.40;;
18296;SDS011;18066;52.106;5.534;2023-08-31T11:56:40;0.40;;;0.40;;
18296;SDS011;18066;52.106;5.534;2023-08-31T11:59:08;1.00;;;0.40;;
18296;SDS011;18066;52.106;5.534;2023-08-31T12:01:37;2.50;;;0.57;;
18296;SDS011;18066;52.106;5.534;2023-08-31T12:04:12;3.60;;;0.60;;
18296;SDS011;18066;52.106;5.534;2023-08-31T12:06:39;2.22;;;0.68;;
18296;SDS011;18066;52.106;5.534;2023-08-31T12:09:07;2.67;;;0.60;;
18296;SDS011;18066;52.106;5.534;2023-08-31T12:11:36;1.65;;;0.55;;
18296;SDS011;18066;52.106;5.534;2023-08-31T12:14:03;0.82;;;0.40;;
18296;SDS011;18066;52.106;5.534;2023-08-31T12:16:45;1.83;;;0.50;;
18296;SDS011;18066;52.106;5.534;2023-08-31T12:19:11;2.03;;;0.28;;
18296;SDS011;18066;52.106;5.534;2023-08-31T12:21:38;0.73;;;0.50;;
18296;SDS011;18066;52.106;5.534;2023-08-31T12:24:06;0.75;;;0.40;;
18296;SDS011;18066;52.106;5.534;2023-08-31T12:26:33;1.38;;;0.45;;
18296;SDS011;18066;52.106;5.534;2023-08-31T12:29:02;2.75;;;0.50;;
18296;SDS011;18066;52.106;5.534;2023-08-31T12:31:29;2.30;;;0.50;;
18296;SDS011;18066;52.106;5.534;2023-08-31T12:33:57;0.63;;;0.60;;
18296;SDS011;18066;52.106;5.534;2023-08-31T12:36:24;5.43;;;0.65;;
18296;SDS011;18066;52.106;5.534;2023-08-31T12:38:51;2.25;;;0.68;;
18296;SDS011;18066;52.106;5.534;2023-08-31T12:41:19;0.32;;;0.32;;
18296;SDS011;18066;52.106;5.534;2023-08-31T12:43:47;1.58;;;0.40;;
18296;SDS011;18066;52.106;5.534;2023-08-31T12:46:14;3.08;;;0.70;;
18296;SDS011;18066;52.106;5.534;2023-08-31T12:48:42;0.40;;;0.40;;
18296;SDS011;18066;52.106;5.534;2023-08-31T12:51:08;1.50;;;0.60;;
18296;SDS011;18066;52.106;5.534;2023-08-31T12:53:37;0.40;;;0.40;;
18296;SDS011;18066;52.106;5.534;2023-08-31T12:56:04;1.20;;;0.50;;
18296;SDS011;18066;52.106;5.534;2023-08-31T12:58:31;2.33;;;0.70;;
18296;SDS011;18066;52.106;5.534;2023-08-31T13:01:00;3.83;;;0.70;;
18296;SDS011;18066;52.106;5.534;2023-08-31T13:03:27;2.33;;;0.95;;
18296;SDS011;18066;52.106;5.534;2023-08-31T13:05:54;1.00;;;0.50;;
18296;SDS011;18066;52.106;5.534;2023-08-31T13:08:21;3.33;;;0.50;;
18296;SDS011;18066;52.106;5.534;2023-08-31T13:10:51;2.13;;;0.70;;
18296;SDS011;18066;52.106;5.534;2023-08-31T13:13:19;2.00;;;0.90;;
18296;SDS011;18066;52.106;5.534;2023-08-31T13:15:46;4.63;;;0.93;;
18296;SDS011;18066;52.106;5.534;2023-08-31T13:18:14;0.95;;;0.50;;
18296;SDS011;18066;52.106;5.534;2023-08-31T13:20:48;1.27;;;0.68;;
18296;SDS011;18066;52.106;5.534;2023-08-31T13:23:15;3.47;;;0.50;;
18296;SDS011;18066;52.106;5.534;2023-08-31T13:25:42;0.80;;;0.45;;
18296;SDS011;18066;52.106;5.534;2023-08-31T13:28:09;1.20;;;0.50;;
18296;SDS011;18066;52.106;5.534;2023-08-31T13:30:36;2.85;;;0.70;;
18296;SDS011;18066;52.106;5.534;2023-08-31T13:33:02;5.65;;;0.80;;
18296;SDS011;18066;52.106;5.534;2023-08-31T13:35:31;1.15;;;0.55;;
18296;SDS011;18066;52.106;5.534;2023-08-31T13:37:58;3.90;;;0.80;;
18296;SDS011;18066;52.106;5.534;2023-08-31T13:40:25;1.52;;;0.50;;
18296;SDS011;18066;52.106;5.534;2023-08-31T13:42:53;2.05;;;0.70;;
18296;SDS011;18066;52.106;5.534;2023-08-31T13:45:22;2.78;;;0.80;;
18296;SDS011;18066;52.106;5.534;2023-08-31T13:47:49;1.90;;;0.60;;
18296;SDS011;18066;52.106;5.534;2023-08-31T13:50:16;0.45;;;0.43;;
18296;SDS011;18066;52.106;5.534;2023-08-31T13:52:44;5.57;;;0.85;;
18296;SDS011;18066;52.106;5.534;2023-08-31T13:55:11;4.43;;;0.70;;
18296;SDS011;18066;52.106;5.534;2023-08-31T13:57:38;0.73;;;0.55;;
18296;SDS011;18066;52.106;5.534;2023-08-31T14:00:07;1.67;;;0.55;;
18296;SDS011;18066;52.106;5.534;2023-08-31T14:02:36;2.55;;;0.68;;
18296;SDS011;18066;52.106;5.534;2023-08-31T14:05:05;1.92;;;0.70;;
18296;SDS011;18066;52.106;5.534;2023-08-31T14:07:33;1.48;;;0.70;;
18296;SDS011;18066;52.106;5.534;2023-08-31T14:10:02;2.58;;;0.70;;
18296;SDS011;18066;52.106;5.534;2023-08-31T14:12:30;0.55;;;0.50;;
18296;SDS011;18066;52.106;5.534;2023-08-31T14:14:57;0.82;;;0.40;;
18296;SDS011;18066;52.106;5.534;2023-08-31T14:17:24;1.75;;;0.70;;
18296;SDS011;18066;52.106;5.534;2023-08-31T14:19:50;0.93;;;0.57;;
18296;SDS011;18066;52.106;5.534;2023-08-31T14:22:17;0.63;;;0.45;;
18296;SDS011;18066;52.106;5.534;2023-08-31T14:24:44;1.33;;;0.82;;
18296;SDS011;18066;52.106;5.534;2023-08-31T14:27:12;1.20;;;0.60;;
18296;SDS011;18066;52.106;5.534;2023-08-31T14:29:39;0.60;;;0.45;;
18296;SDS011;18066;52.106;5.534;2023-08-31T14:32:06;2.88;;;0.50;;
18296;SDS011;18066;52.106;5.534;2023-08-31T14:34:33;1.33;;;0.47;;
18296;SDS011;18066;52.106;5.534;2023-08-31T14:37:00;1.05;;;0.50;;
18296;SDS011;18066;52.106;5.534;2023-08-31T14:39:27;0.85;;;0.43;;
18296;SDS011;18066;52.106;5.534;2023-08-31T14:41:55;1.45;;;0.63;;
18296;SDS011;18066;52.106;5.534;2023-08-31T14:44:24;1.25;;;0.80;;
18296;SDS011;18066;52.106;5.534;2023-08-31T14:46:51;1.73;;;0.90;;
18296;SDS011;18066;52.106;5.534;2023-08-31T14:49:18;2.58;;;0.63;;
18296;SDS011;18066;52.106;5.534;2023-08-31T14:51:48;0.73;;;0.45;;
18296;SDS011;18066;52.106;5.534;2023-08-31T14:54:14;0.52;;;0.47;;
18296;SDS011;18066;52.106;5.534;2023-08-31T14:56:41;1.98;;;0.63;;
18296;SDS011;18066;52.106;5.534;2023-08-31T14:59:08;6.50;;;0.60;;